sensor_id;sensor_type;location;lat;lon;timestamp;temperature;humidity
2751;DHT22;1383;48.362;10.908;2024-03-22T10:45:22;17.90;34.50
2751;DHT22;1383;48.362;10.908;2024-03-22T10:47:53;18.00;34.20
2751;DHT22;1383;48.362;10.908;2024-03-22T10:50:59;17.90;33.90
2751;DHT22;1383;48.362;10.908;2024-03-22T10:53:28;17.70;34.30
2751;DHT22;1383;48.362;10.908;2024-03-22T10:56:05;17.70;34.20
2751;DHT22;1383;48.362;10.908;2024-03-22T10:58:39;17.50;34.40
2751;DHT22;1383;48.362;10.908;2024-03-22T11:01:06;17.50;34.40
2751;DHT22;1383;48.362;10.908;2024-03-22T11:03:31;17.30;34.40
2751;DHT22;1383;48.362;10.908;2024-03-22T11:05:59;17.30;34.60
2751;DHT22;1383;48.362;10.908;2024-03-22T11:08:27;17.20;35.00
2751;DHT22;1383;48.362;10.908;2024-03-22T11:10:56;17.20;34.50
2751;DHT22;1383;48.362;10.908;2024-03-22T11:13:22;17.30;33.40
2751;DHT22;1383;48.362;10.908;2024-03-22T11:15:51;17.30;33.50
2751;DHT22;1383;48.362;10.908;2024-03-22T11:18:18;17.20;33.30
2751;DHT22;1383;48.362;10.908;2024-03-22T11:20:44;17.20;33.40
2751;DHT22;1383;48.362;10.908;2024-03-22T11:23:13;17.00;33.90
2751;DHT22;1383;48.362;10.908;2024-03-22T11:25:39;17.00;33.30
2751;DHT22;1383;48.362;10.908;2024-03-22T11:28:05;17.00;33.70
2751;DHT22;1383;48.362;10.908;2024-03-22T11:30:33;17.10;34.30
2751;DHT22;1383;48.362;10.908;2024-03-22T11:33:03;17.10;34.40
2751;DHT22;1383;48.362;10.908;2024-03-22T11:35:29;17.10;34.60
2751;DHT22;1383;48.362;10.908;2024-03-22T11:37:55;17.20;33.60
2751;DHT22;1383;48.362;10.908;2024-03-22T11:40:26;17.10;34.10
2751;DHT22;1383;48.362;10.908;2024-03-22T11:42:53;17.20;33.40
2751;DHT22;1383;48.362;10.908;2024-03-22T11:45:21;17.30;33.00
2751;DHT22;1383;48.362;10.908;2024-03-22T11:47:49;17.30;33.00
2751;DHT22;1383;48.362;10.908;2024-03-22T11:50:17;17.20;32.90
2751;DHT22;1383;48.362;10.908;2024-03-22T11:52:44;17.20;32.10
2751;DHT22;1383;48.362;10.908;2024-03-22T11:55:13;17.20;31.80
2751;DHT22;1383;48.362;10.908;2024-03-22T11:57:40;17.20;32.10
2751;DHT22;1383;48.362;10.908;2024-03-22T12:00:07;17.20;32.00
2751;DHT22;1383;48.362;10.908;2024-03-22T12:02:37;17.20;32.50
2751;DHT22;1383;48.362;10.908;2024-03-22T12:05:04;17.30;32.90
2751;DHT22;1383;48.362;10.908;2024-03-22T12:07:30;17.40;32.40
2751;DHT22;1383;48.362;10.908;2024-03-22T12:09:56;17.40;32.70
2751;DHT22;1383;48.362;10.908;2024-03-22T12:12:22;17.50;32.40
2751;DHT22;1383;48.362;10.908;2024-03-22T12:14:48;17.50;32.20
2751;DHT22;1383;48.362;10.908;2024-03-22T12:17:17;17.60;32.40
2751;DHT22;1383;48.362;10.908;2024-03-22T12:19:43;17.70;32.30
2751;DHT22;1383;48.362;10.908;2024-03-22T12:22:09;17.80;32.50
2751;DHT22;1383;48.362;10.908;2024-03-22T12:24:36;17.80;32.00
2751;DHT22;1383;48.362;10.908;2024-03-22T12:27:02;17.80;32.10
2751;DHT22;1383;48.362;10.908;2024-03-22T12:29:28;17.90;32.30
2751;DHT22;1383;48.362;10.908;2024-03-22T12:31:55;17.90;31.60
2751;DHT22;1383;48.362;10.908;2024-03-22T12:34:24;17.90;31.90
2751;DHT22;1383;48.362;10.908;2024-03-22T12:36:50;18.00;31.70
2751;DHT22;1383;48.362;10.908;2024-03-22T12:39:17;18.10;31.40
2751;DHT22;1383;48.362;10.908;2024-03-22T12:41:42;18.00;31.60
2751;DHT22;1383;48.362;10.908;2024-03-22T12:44:08;17.90;32.40
2751;DHT22;1383;48.362;10.908;2024-03-22T12:46:34;18.00;32.40
2751;DHT22;1383;48.362;10.908;2024-03-22T12:49:00;18.00;32.00
2751;DHT22;1383;48.362;10.908;2024-03-22T12:51:26;18.10;32.90
2751;DHT22;1383;48.362;10.908;2024-03-22T12:53:52;18.10;32.10
2751;DHT22;1383;48.362;10.908;2024-03-22T12:56:18;18.10;32.10
2751;DHT22;1383;48.362;10.908;2024-03-22T12:58:44;18.10;32.20
2751;DHT22;1383;48.362;10.908;2024-03-22T13:01:10;18.20;32.30
2751;DHT22;1383;48.362;10.908;2024-03-22T13:03:38;18.20;31.90
2751;DHT22;1383;48.362;10.908;2024-03-22T13:06:04;18.30;32.10
2751;DHT22;1383;48.362;10.908;2024-03-22T13:08:32;18.30;31.90
2751;DHT22;1383;48.362;10.908;2024-03-22T13:10:58;18.30;31.90
2751;DHT22;1383;48.362;10.908;2024-03-22T13:13:24;18.40;32.20
2751;DHT22;1383;48.362;10.908;2024-03-22T13:15:50;18.30;31.90
2751;DHT22;1383;48.362;10.908;2024-03-22T13:18:16;18.30;31.80
2751;DHT22;1383;48.362;10.908;2024-03-22T13:20:42;18.40;31.70
2751;DHT22;1383;48.362;10.908;2024-03-22T13:23:08;18.40;31.50
2751;DHT22;1383;48.362;10.908;2024-03-22T13:25:37;18.40;32.00
2751;DHT22;1383;48.362;10.908;2024-03-22T13:28:03;18.40;31.90
2751;DHT22;1383;48.362;10.908;2024-03-22T13:30:31;18.50;31.50
2751;DHT22;1383;48.362;10.908;2024-03-22T13:33:16;18.40;31.50
2751;DHT22;1383;48.362;10.908;2024-03-22T13:35:45;18.40;31.90
2751;DHT22;1383;48.362;10.908;2024-03-22T13:38:11;18.40;31.90
2751;DHT22;1383;48.362;10.908;2024-03-22T13:40:39;18.40;31.70
2751;DHT22;1383;48.362;10.908;2024-03-22T13:43:25;18.30;31.70
2751;DHT22;1383;48.362;10.908;2024-03-22T13:46:00;18.30;31.90
2751;DHT22;1383;48.362;10.908;2024-03-22T13:48:26;18.30;31.50
2751;DHT22;1383;48.362;10.908;2024-03-22T13:50:54;18.40;31.60
2751;DHT22;1383;48.362;10.908;2024-03-22T13:53:20;18.50;31.60
2751;DHT22;1383;48.362;10.908;2024-03-22T13:55:49;18.60;31.40
2751;DHT22;1383;48.362;10.908;2024-03-22T13:58:15;18.60;31.10
2751;DHT22;1383;48.362;10.908;2024-03-22T14:00:42;18.60;30.80
2751;DHT22;1383;48.362;10.908;2024-03-22T14:03:08;18.70;30.30
2751;DHT22;1383;48.362;10.908;2024-03-22T14:05:34;18.70;30.00
2751;DHT22;1383;48.362;10.908;2024-03-22T14:08:00;18.70;30.00
2751;DHT22;1383;48.362;10.908;2024-03-22T14:10:26;18.70;29.90
2751;DHT22;1383;48.362;10.908;2024-03-22T14:12:57;18.80;28.50
2751;DHT22;1383;48.362;10.908;2024-03-22T14:15:23;18.80;27.80
2751;DHT22;1383;48.362;10.908;2024-03-22T14:17:56;18.70;27.10
2751;DHT22;1383;48.362;10.908;2024-03-22T14:20:23;18.80;26.10
2751;DHT22;1383;48.362;10.908;2024-03-22T14:22:50;18.90;25.60
2751;DHT22;1383;48.362;10.908;2024-03-22T14:25:17;18.90;25.60
2751;DHT22;1383;48.362;10.908;2024-03-22T14:27:46;18.90;25.40
2751;DHT22;1383;48.362;10.908;2024-03-22T14:32:45;18.90;25.20
2751;DHT22;1383;48.362;10.908;2024-03-22T14:35:12;19.10;25.40
2751;DHT22;1383;48.362;10.908;2024-03-22T14:37:38;19.00;25.40
2751;DHT22;1383;48.362;10.908;2024-03-22T14:40:05;19.00;25.40
2751;DHT22;1383;48.362;10.908;2024-03-22T14:42:33;19.00;25.40
2751;DHT22;1383;48.362;10.908;2024-03-22T14:44:59;18.90;25.80
2751;DHT22;1383;48.362;10.908;2024-03-22T14:47:25;19.00;26.00
2751;DHT22;1383;48.362;10.908;2024-03-22T14:49:51;19.00;25.80
2751;DHT22;1383;48.362;10.908;2024-03-22T14:52:17;18.90;26.20
2751;DHT22;1383;48.362;10.908;2024-03-22T14:54:43;18.90;25.90
2751;DHT22;1383;48.362;10.908;2024-03-22T14:57:10;18.90;25.10
2751;DHT22;1383;48.362;10.908;2024-03-22T14:59:36;18.90;25.20
2751;DHT22;1383;48.362;10.908;2024-03-22T15:02:02;18.80;25.80
2751;DHT22;1383;48.362;10.908;2024-03-22T15:04:31;18.70;25.70
2751;DHT22;1383;48.362;10.908;2024-03-22T15:06:57;18.70;26.00
2751;DHT22;1383;48.362;10.908;2024-03-22T15:09:23;18.70;26.20
2751;DHT22;1383;48.362;10.908;2024-03-22T15:11:50;18.70;26.40
2751;DHT22;1383;48.362;10.908;2024-03-22T15:14:16;18.70;26.40
2751;DHT22;1383;48.362;10.908;2024-03-22T15:16:42;18.60;26.70
2751;DHT22;1383;48.362;10.908;2024-03-22T15:19:09;18.60;26.50
2751;DHT22;1383;48.362;10.908;2024-03-22T15:21:38;18.60;27.30
2751;DHT22;1383;48.362;10.908;2024-03-22T15:24:04;18.60;26.80
2751;DHT22;1383;48.362;10.908;2024-03-22T15:26:31;18.50;27.00
2751;DHT22;1383;48.362;10.908;2024-03-22T15:29:08;18.40;26.60
2751;DHT22;1383;48.362;10.908;2024-03-22T15:31:34;18.40;26.30
2751;DHT22;1383;48.362;10.908;2024-03-22T15:34:00;18.30;26.20
2751;DHT22;1383;48.362;10.908;2024-03-22T15:36:26;18.30;25.80
2751;DHT22;1383;48.362;10.908;2024-03-22T15:38:52;18.10;25.80
2751;DHT22;1383;48.362;10.908;2024-03-22T15:41:18;18.10;25.90
2751;DHT22;1383;48.362;10.908;2024-03-22T15:43:45;18.10;25.50
2751;DHT22;1383;48.362;10.908;2024-03-22T15:46:11;18.10;25.20
2751;DHT22;1383;48.362;10.908;2024-03-22T15:48:37;18.00;25.00
2751;DHT22;1383;48.362;10.908;2024-03-22T15:51:03;18.00;24.80
2751;DHT22;1383;48.362;10.908;2024-03-22T15:53:59;17.90;24.50
2751;DHT22;1383;48.362;10.908;2024-03-22T17:09:55;17.20;25.80
2751;DHT22;1383;48.362;10.908;2024-03-22T17:12:43;17.10;26.00
2751;DHT22;1383;48.362;10.908;2024-03-22T17:19:12;17.10;26.20
2751;DHT22;1383;48.362;10.908;2024-03-22T17:28:24;17.00;26.30
2751;DHT22;1383;48.362;10.908;2024-03-22T17:35:17;16.90;26.60
2751;DHT22;1383;48.362;10.908;2024-03-22T17:38:40;16.80;26.80
2751;DHT22;1383;48.362;10.908;2024-03-22T17:41:24;16.70;26.60
2751;DHT22;1383;48.362;10.908;2024-03-22T17:44:26;16.60;26.70
2751;DHT22;1383;48.362;10.908;2024-03-22T17:46:55;16.60;26.70
2751;DHT22;1383;48.362;10.908;2024-03-22T17:52:36;16.50;27.00
2751;DHT22;1383;48.362;10.908;2024-03-22T17:55:04;16.40;27.10
2751;DHT22;1383;48.362;10.908;2024-03-22T17:57:37;16.40;27.40
2751;DHT22;1383;48.362;10.908;2024-03-22T18:03:37;16.20;27.80
2751;DHT22;1383;48.362;10.908;2024-03-22T18:06:19;16.20;27.80
2751;DHT22;1383;48.362;10.908;2024-03-22T18:09:38;16.20;28.10
2751;DHT22;1383;48.362;10.908;2024-03-22T18:19:11;15.90;28.40
2751;DHT22;1383;48.362;10.908;2024-03-22T18:26:00;15.80;28.80
